Time;durP1;ratioP1;P1;durP2;ratioP2;P2;SDS_P1;SDS_P2;PMS_P1;PMS_P2;Temp;Humidity;BMP_temperature;BMP_pressure;BME280_temperature;BME280_humidity;BME280_pressure;Samples;Min_cycle;Max_cycle;Signal;HPM_P1;HPM_P2
2023/07/05 00:00:51;;;;;;;21.48;19.88;;;14.60;99.90;;;;;;5075595;28;20051;-74
2023/07/05 00:03:16;;;;;;;28.17;26.67;;;14.50;99.90;;;;;;5076778;28;20036;-74
2023/07/05 00:05:42;;;;;;;25.00;23.35;;;14.50;99.90;;;;;;5054827;28;20050;-74
2023/07/05 00:08:08;;;;;;;26.35;24.65;;;14.40;99.90;;;;;;5077434;28;20505;-74
2023/07/05 00:10:35;;;;;;;28.50;26.40;;;14.30;99.90;;;;;;5076509;28;20056;-74
2023/07/05 00:13:00;;;;;;;26.67;24.45;;;14.30;99.90;;;;;;5072551;28;20029;-75
2023/07/05 00:15:28;;;;;;;34.35;32.38;;;14.20;99.90;;;;;;5075351;28;20043;-74
2023/07/05 00:17:54;;;;;;;24.10;22.27;;;14.20;99.90;;;;;;5069926;28;20025;-73
2023/07/05 00:20:19;;;;;;;25.35;23.48;;;14.20;99.90;;;;;;5074359;28;20035;-73
2023/07/05 00:22:45;;;;;;;21.27;19.58;;;14.10;99.90;;;;;;5074907;28;20039;-74
2023/07/05 00:25:11;;;;;;;24.95;23.13;;;14.20;99.90;;;;;;5075578;28;20039;-74
2023/07/05 00:27:37;;;;;;;24.13;22.40;;;14.20;99.90;;;;;;5058936;28;20024;-74
2023/07/05 00:30:03;;;;;;;26.02;24.35;;;14.10;99.90;;;;;;5073394;28;20039;-73
2023/07/05 00:32:28;;;;;;;25.33;23.65;;;14.00;99.90;;;;;;5069568;28;20418;-73
2023/07/05 00:34:54;;;;;;;25.02;23.50;;;14.10;99.90;;;;;;5070000;28;20039;-74
2023/07/05 00:37:19;;;;;;;25.70;23.98;;;14.20;99.90;;;;;;5071071;28;20037;-73
2023/07/05 00:39:45;;;;;;;26.25;24.77;;;14.10;99.90;;;;;;5073627;28;20599;-74
2023/07/05 00:42:11;;;;;;;23.48;21.83;;;14.10;99.90;;;;;;5076880;28;20482;-73
2023/07/05 00:44:37;;;;;;;25.67;23.98;;;14.10;99.90;;;;;;5070818;28;20094;-74
2023/07/05 00:47:25;;;;;;;25.52;23.98;;;14.00;99.90;;;;;;5073080;28;20123;-74
2023/07/05 00:49:51;;;;;;;26.15;24.20;;;14.10;99.90;;;;;;5073303;28;20622;-74
2023/07/05 00:52:18;;;;;;;25.92;24.20;;;14.20;99.90;;;;;;5069615;28;20040;-74
2023/07/05 00:54:48;;;;;;;23.23;21.73;;;14.20;99.90;;;;;;5074127;28;20028;-74
2023/07/05 00:57:20;;;;;;;24.27;23.05;;;14.10;99.90;;;;;;5088234;28;20036;-74
2023/07/05 00:59:54;;;;;;;22.67;21.38;;;14.10;99.90;;;;;;5069270;28;20113;-74
2023/07/05 01:02:20;;;;;;;24.05;22.35;;;14.00;99.90;;;;;;5075763;28;20036;-73
2023/07/05 01:04:46;;;;;;;22.35;20.65;;;14.00;99.90;;;;;;5074330;28;20032;-73
2023/07/05 01:07:12;;;;;;;21.83;20.55;;;14.00;99.90;;;;;;5078698;28;20040;-73
2023/07/05 01:09:37;;;;;;;23.90;22.50;;;13.90;99.90;;;;;;5073340;28;20056;-75
2023/07/05 01:13:01;;;;;;;23.35;22.15;;;13.80;99.90;;;;;;5069704;28;20170;-75
2023/07/05 01:15:37;;;;;;;22.20;20.45;;;13.80;99.90;;;;;;5025332;28;20469;-73
2023/07/05 01:18:16;;;;;;;21.65;20.35;;;13.80;99.90;;;;;;5070062;28;20486;-73
2023/07/05 01:21:08;;;;;;;22.38;21.00;;;13.70;99.90;;;;;;5074236;28;20482;-73
2023/07/05 01:24:02;;;;;;;22.70;21.38;;;13.70;99.90;;;;;;5068851;28;20041;-73
2023/07/05 01:26:30;;;;;;;20.48;19.17;;;13.70;99.90;;;;;;5069604;28;20037;-72
2023/07/05 01:29:06;;;;;;;22.98;21.55;;;13.70;99.90;;;;;;5054755;28;20032;-73
2023/07/05 01:31:31;;;;;;;23.00;21.60;;;13.70;99.90;;;;;;5074550;28;20105;-73
2023/07/05 01:34:07;;;;;;;23.73;21.88;;;13.70;99.90;;;;;;5087154;28;20071;-75
2023/07/05 01:36:34;;;;;;;22.42;20.92;;;13.80;99.90;;;;;;5075753;28;20051;-75
2023/07/05 01:39:00;;;;;;;22.63;21.23;;;13.80;99.90;;;;;;5079692;28;20029;-74
2023/07/05 01:41:25;;;;;;;22.23;20.85;;;13.80;99.90;;;;;;5086662;28;20039;-74
2023/07/05 01:43:52;;;;;;;22.08;20.77;;;13.80;99.90;;;;;;5055826;28;20513;-74
2023/07/05 01:46:26;;;;;;;20.52;19.33;;;13.80;99.90;;;;;;5081644;28;20039;-74
2023/07/05 01:49:17;;;;;;;20.15;18.95;;;13.80;99.90;;;;;;5075955;28;20478;-74
2023/07/05 01:51:54;;;;;;;19.25;17.85;;;13.70;99.90;;;;;;5075521;28;20031;-74
2023/07/05 01:54:58;;;;;;;21.85;20.38;;;13.70;99.90;;;;;;5057951;28;20028;-74
2023/07/05 01:57:33;;;;;;;23.15;21.65;;;13.70;99.90;;;;;;5079339;28;20482;-74
2023/07/05 02:00:15;;;;;;;24.92;23.50;;;13.70;99.90;;;;;;5076547;28;20036;-73
2023/07/05 02:02:53;;;;;;;23.98;22.48;;;13.70;99.90;;;;;;5073704;28;20426;-73
2023/07/05 02:05:22;;;;;;;22.52;20.92;;;13.60;99.90;;;;;;5076664;28;20054;-73
2023/07/05 02:07:48;;;;;;;25.10;23.65;;;13.60;99.90;;;;;;5073869;28;20020;-73
2023/07/05 02:10:14;;;;;;;24.80;23.20;;;13.60;99.90;;;;;;5075875;28;20491;-73
2023/07/05 02:12:40;;;;;;;30.45;28.25;;;13.50;99.90;;;;;;5077304;28;20047;-74
2023/07/05 02:15:06;;;;;;;28.27;25.85;;;13.60;99.90;;;;;;5073899;28;20360;-74
2023/07/05 02:17:32;;;;;;;25.30;23.25;;;13.70;99.90;;;;;;5076972;28;20071;-74
2023/07/05 02:19:57;;;;;;;23.02;21.73;;;13.70;99.90;;;;;;5076843;28;20056;-74
2023/07/05 02:22:23;;;;;;;22.02;20.77;;;13.60;99.90;;;;;;5074585;28;20067;-73
2023/07/05 02:24:53;;;;;;;22.90;21.50;;;13.60;99.90;;;;;;5056924;28;20024;-74
2023/07/05 02:27:19;;;;;;;21.77;20.48;;;13.60;99.90;;;;;;5074300;28;20064;-73
2023/07/05 02:29:45;;;;;;;22.00;20.60;;;13.70;99.90;;;;;;5072267;28;20522;-73
2023/07/05 02:32:10;;;;;;;23.35;21.60;;;13.80;99.90;;;;;;5078178;28;20020;-72
2023/07/05 02:34:42;;;;;;;23.45;22.15;;;13.80;99.90;;;;;;5073857;28;20040;-72
2023/07/05 02:37:11;;;;;;;22.95;21.48;;;13.80;99.90;;;;;;5079864;28;20107;-72
2023/07/05 02:39:37;;;;;;;23.30;21.95;;;13.70;99.90;;;;;;5073642;28;20040;-72
2023/07/05 02:42:03;;;;;;;22.60;21.10;;;13.70;99.90;;;;;;5078158;28;20512;-75
2023/07/05 02:44:29;;;;;;;23.42;21.92;;;13.70;99.90;;;;;;5076063;28;20856;-74
2023/07/05 02:46:55;;;;;;;22.77;21.13;;;13.80;99.90;;;;;;5073606;28;20029;-74
2023/07/05 02:49:21;;;;;;;24.30;22.27;;;13.80;99.90;;;;;;5091062;28;20020;-74
2023/07/05 02:51:46;;;;;;;24.00;21.90;;;13.90;99.90;;;;;;5092217;28;20517;-74
2023/07/05 02:54:12;;;;;;;23.63;22.05;;;14.00;99.90;;;;;;5074393;28;20060;-74
2023/07/05 02:56:38;;;;;;;22.75;21.35;;;14.10;99.90;;;;;;5059323;28;20078;-74
2023/07/05 02:59:04;;;;;;;24.70;23.20;;;14.10;99.90;;;;;;5090253;28;20052;-73
2023/07/05 03:01:30;;;;;;;24.08;22.58;;;14.10;99.90;;;;;;5078324;28;20040;-74
2023/07/05 03:03:55;;;;;;;23.02;21.67;;;14.10;99.90;;;;;;5074584;28;20574;-74
2023/07/05 03:06:21;;;;;;;27.33;25.83;;;14.10;99.90;;;;;;5075646;28;20041;-74
2023/07/05 03:08:47;;;;;;;27.48;25.88;;;14.10;99.90;;;;;;5076005;28;20150;-74
2023/07/05 03:11:13;;;;;;;24.30;22.90;;;14.10;99.90;;;;;;5077782;28;20032;-74
2023/07/05 03:13:38;;;;;;;25.15;23.33;;;14.10;99.90;;;;;;5071326;28;20081;-74
2023/07/05 03:16:05;;;;;;;31.33;29.10;;;14.20;99.90;;;;;;5076089;28;20068;-74
2023/07/05 03:18:31;;;;;;;27.95;25.92;;;14.20;99.90;;;;;;5088889;28;20048;-74
2023/07/05 03:20:57;;;;;;;28.40;26.08;;;14.20;99.90;;;;;;5077940;28;20028;-74
2023/07/05 03:23:23;;;;;;;25.27;23.58;;;14.30;99.90;;;;;;5092745;28;20051;-74
2023/07/05 03:25:59;;;;;;;25.30;23.05;;;15.50;99.90;;;;;;5074190;28;20119;-74
2023/07/05 03:28:28;;;;;;;28.88;26.92;;;15.90;99.90;;;;;;5075857;28;20032;-74
2023/07/05 03:31:04;;;;;;;22.23;20.50;;;15.90;99.90;;;;;;5055407;28;20666;-75
2023/07/05 03:33:30;;;;;;;21.83;20.50;;;15.40;99.90;;;;;;5071479;28;20025;-74
2023/07/05 03:36:02;;;;;;;22.33;20.20;;;15.60;99.90;;;;;;5075389;28;20033;-74
2023/07/05 03:38:29;;;;;;;23.20;20.90;;;15.50;99.90;;;;;;5072998;28;20029;-74
2023/07/05 03:40:59;;;;;;;21.88;19.38;;;15.30;99.90;;;;;;5074372;28;20033;-74
2023/07/05 03:43:26;;;;;;;25.38;23.60;;;15.50;99.90;;;;;;5074975;28;20036;-74
2023/07/05 03:45:52;;;;;;;27.58;26.02;;;15.40;99.90;;;;;;5072512;28;20120;-74
2023/07/05 03:48:19;;;;;;;28.15;26.25;;;15.20;99.90;;;;;;5074687;28;20036;-74
2023/07/05 03:50:45;;;;;;;33.42;31.33;;;15.20;99.90;;;;;;5073245;28;20024;-74
2023/07/05 03:53:11;;;;;;;36.22;34.08;;;15.20;99.90;;;;;;5089643;28;20031;-74
2023/07/05 03:55:37;;;;;;;37.72;35.88;;;15.20;99.90;;;;;;5074202;28;20040;-73
2023/07/05 03:58:02;;;;;;;40.03;37.72;;;15.10;99.90;;;;;;5077012;28;20384;-74
2023/07/05 04:00:28;;;;;;;40.13;37.63;;;14.80;99.90;;;;;;5097610;28;20028;-74
2023/07/05 04:02:54;;;;;;;50.22;46.17;;;14.90;99.90;;;;;;5075608;28;20032;-75
2023/07/05 04:05:20;;;;;;;27.40;25.40;;;14.60;99.90;;;;;;5073867;28;20028;-73
2023/07/05 04:07:46;;;;;;;32.22;29.40;;;14.60;99.90;;;;;;5079155;28;20178;-72
2023/07/05 04:10:11;;;;;;;39.00;36.40;;;14.90;99.90;;;;;;5076982;28;20024;-72
2023/07/05 04:12:37;;;;;;;36.92;33.95;;;15.00;99.90;;;;;;5073491;28;20162;-73
2023/07/05 04:15:03;;;;;;;35.38;33.08;;;15.00;99.90;;;;;;5071437;28;20085;-72
2023/07/05 04:17:30;;;;;;;40.65;37.85;;;15.10;99.90;;;;;;5073852;28;20119;-72
2023/07/05 04:19:55;;;;;;;40.03;37.28;;;15.20;99.90;;;;;;5071479;28;20406;-72
2023/07/05 04:22:21;;;;;;;40.03;37.22;;;15.20;99.90;;;;;;5076735;28;20038;-72
2023/07/05 04:24:47;;;;;;;38.05;35.25;;;15.50;99.90;;;;;;5070237;28;20802;-73
2023/07/05 04:27:15;;;;;;;34.05;31.63;;;15.20;99.90;;;;;;5088292;28;20066;-73
2023/07/05 04:29:41;;;;;;;28.65;26.58;;;15.30;99.90;;;;;;5073304;28;20557;-71
2023/07/05 04:32:07;;;;;;;28.70;26.70;;;15.10;99.90;;;;;;5077952;28;20116;-71
2023/07/05 04:34:33;;;;;;;31.25;29.25;;;15.10;99.90;;;;;;5086406;28;20032;-72
2023/07/05 04:36:59;;;;;;;29.83;27.73;;;15.00;99.90;;;;;;5072619;28;20039;-72
2023/07/05 04:39:24;;;;;;;30.60;28.13;;;15.10;99.90;;;;;;5072134;28;20031;-72
2023/07/05 04:41:50;;;;;;;29.60;27.58;;;15.10;99.90;;;;;;5069998;28;20088;-74
2023/07/05 04:44:16;;;;;;;32.70;30.50;;;15.20;99.90;;;;;;5072689;28;20101;-75
2023/07/05 04:46:42;;;;;;;32.78;30.52;;;15.40;99.90;;;;;;5052158;28;20032;-76
2023/07/05 04:49:07;;;;;;;30.75;28.77;;;15.40;99.90;;;;;;5070164;28;20064;-77
2023/07/05 04:51:33;;;;;;;28.73;26.80;;;15.40;99.90;;;;;;5074308;28;20059;-75
2023/07/05 04:54:00;;;;;;;32.25;30.17;;;15.50;99.90;;;;;;5075031;28;20488;-76
2023/07/05 04:56:26;;;;;;;34.15;31.50;;;15.70;99.90;;;;;;5073831;28;20035;-78
2023/07/05 04:58:51;;;;;;;26.52;24.85;;;15.50;99.90;;;;;;5052461;28;20421;-76
2023/07/05 05:01:18;;;;;;;31.20;29.17;;;15.40;99.90;;;;;;5089884;28;20098;-75
2023/07/05 05:03:44;;;;;;;31.08;29.48;;;15.30;99.90;;;;;;5072216;28;20498;-75
2023/07/05 05:06:10;;;;;;;45.20;42.55;;;15.50;99.90;;;;;;5073028;28;20046;-75
2023/07/05 05:08:37;;;;;;;33.95;32.00;;;15.60;99.90;;;;;;5076998;28;20028;-75
2023/07/05 05:11:04;;;;;;;28.02;26.23;;;15.70;99.90;;;;;;5076422;28;20037;-75
2023/07/05 05:13:32;;;;;;;35.97;33.75;;;15.90;99.90;;;;;;5080409;28;20021;-74
2023/07/05 05:15:59;;;;;;;30.42;28.45;;;16.10;99.90;;;;;;5074168;28;20027;-74
2023/07/05 05:18:29;;;;;;;33.13;31.15;;;16.30;99.90;;;;;;5095666;28;20557;-76
2023/07/05 05:20:54;;;;;;;31.97;29.33;;;16.40;99.90;;;;;;5078253;28;20068;-73
2023/07/05 05:23:20;;;;;;;45.67;43.47;;;16.10;99.90;;;;;;5080296;28;20325;-76
2023/07/05 05:25:47;;;;;;;36.03;34.17;;;16.10;99.90;;;;;;5060610;28;20040;-76
2023/07/05 05:28:14;;;;;;;35.97;34.05;;;16.10;99.90;;;;;;5076323;28;20024;-73
2023/07/05 05:30:43;;;;;;;30.70;28.50;;;16.10;99.90;;;;;;5075548;28;20059;-77
2023/07/05 05:33:09;;;;;;;47.47;45.08;;;16.10;99.90;;;;;;5093460;28;20039;-76
2023/07/05 05:35:35;;;;;;;37.90;35.33;;;16.20;99.90;;;;;;5055777;28;20039;-76
2023/07/05 05:38:02;;;;;;;46.00;43.53;;;16.20;99.90;;;;;;5081948;28;20048;-75
2023/07/05 05:40:28;;;;;;;57.13;54.50;;;16.10;99.90;;;;;;5076843;28;20036;-76
2023/07/05 05:42:53;;;;;;;34.97;33.05;;;16.10;99.90;;;;;;5078979;28;20116;-78
2023/07/05 05:45:19;;;;;;;37.97;36.08;;;16.20;99.90;;;;;;5092403;28;20729;-76
2023/07/05 05:47:45;;;;;;;41.15;39.30;;;16.30;99.90;;;;;;5076984;28;20398;-76
2023/07/05 05:50:10;;;;;;;45.58;42.88;;;16.40;99.90;;;;;;5077902;28;20032;-75
2023/07/05 05:52:36;;;;;;;45.55;43.33;;;16.50;99.90;;;;;;5078811;28;20029;-75
2023/07/05 05:55:03;;;;;;;49.97;47.30;;;16.30;99.90;;;;;;5075758;28;20286;-76
2023/07/05 05:57:29;;;;;;;41.28;39.30;;;16.20;99.90;;;;;;5078795;28;20067;-75
2023/07/05 05:59:54;;;;;;;50.83;48.40;;;16.50;99.90;;;;;;5076809;28;20131;-75
2023/07/05 06:02:20;;;;;;;48.85;46.63;;;16.40;99.90;;;;;;5077184;28;20036;-76
2023/07/05 06:04:46;;;;;;;52.60;50.10;;;16.40;99.90;;;;;;5064181;28;20028;-76
2023/07/05 06:07:12;;;;;;;60.80;58.08;;;16.50;99.90;;;;;;5075480;28;20039;-76
2023/07/05 06:09:38;;;;;;;44.72;42.53;;;16.50;99.90;;;;;;5082017;28;20060;-76
2023/07/05 06:12:05;;;;;;;45.03;43.00;;;16.90;99.90;;;;;;5076291;28;20035;-76
2023/07/05 06:14:31;;;;;;;50.75;48.13;;;17.10;99.90;;;;;;5074548;28;20035;-76
2023/07/05 06:16:56;;;;;;;67.97;65.28;;;16.90;99.90;;;;;;5075599;28;20515;-75
2023/07/05 06:19:22;;;;;;;47.67;45.53;;;16.80;99.90;;;;;;5076532;28;20517;-76
2023/07/05 06:21:48;;;;;;;55.42;52.97;;;16.90;99.90;;;;;;5062264;28;20032;-76
2023/07/05 06:24:13;;;;;;;62.63;59.47;;;16.90;99.90;;;;;;5079786;28;20604;-75
2023/07/05 06:26:39;;;;;;;30.45;28.75;;;16.60;99.90;;;;;;5091768;28;20044;-75
2023/07/05 06:29:05;;;;;;;31.38;29.85;;;16.50;99.90;;;;;;5080737;28;20107;-76
2023/07/05 06:31:33;;;;;;;36.45;34.92;;;16.40;99.90;;;;;;5077691;28;20473;-76
2023/07/05 06:33:59;;;;;;;27.95;26.45;;;16.30;99.90;;;;;;5091246;28;20470;-76
2023/07/05 06:36:26;;;;;;;36.17;34.53;;;16.30;99.90;;;;;;5077294;28;20917;-77
2023/07/05 06:38:51;;;;;;;34.63;32.83;;;16.40;99.90;;;;;;5090154;28;20040;-75
2023/07/05 06:41:17;;;;;;;39.90;37.97;;;16.40;99.90;;;;;;5093536;28;20458;-76
2023/07/05 06:43:43;;;;;;;21.15;20.13;;;16.50;99.90;;;;;;5076467;28;20059;-76
2023/07/05 06:46:09;;;;;;;34.42;32.80;;;16.40;99.90;;;;;;5073785;28;20739;-76
2023/07/05 06:48:34;;;;;;;36.17;34.35;;;16.50;99.90;;;;;;5080572;28;20115;-77
2023/07/05 06:51:00;;;;;;;28.70;27.20;;;16.50;99.90;;;;;;5077651;28;20467;-76
2023/07/05 06:53:26;;;;;;;36.97;35.30;;;16.60;99.90;;;;;;5093575;28;20033;-77
2023/07/05 06:55:52;;;;;;;20.95;19.90;;;16.90;99.90;;;;;;5081304;28;20024;-77
2023/07/05 06:58:21;;;;;;;18.95;17.95;;;16.80;99.90;;;;;;5074048;28;20040;-71
2023/07/05 07:00:49;;;;;;;19.75;18.75;;;16.60;99.90;;;;;;5078745;28;20036;-75
2023/07/05 07:03:16;;;;;;;27.02;25.67;;;16.70;99.90;;;;;;5077720;28;20101;-76
2023/07/05 07:05:52;;;;;;;16.77;15.82;;;16.90;99.90;;;;;;5072914;28;20040;-76
2023/07/05 07:08:18;;;;;;;18.92;17.83;;;16.90;99.90;;;;;;5076230;28;20090;-76
2023/07/05 07:10:43;;;;;;;26.27;24.55;;;16.90;99.90;;;;;;5075880;28;20145;-76
2023/07/05 07:13:09;;;;;;;20.17;19.08;;;17.40;99.90;;;;;;5080692;28;20545;-76
2023/07/05 07:15:36;;;;;;;31.90;30.02;;;17.10;99.90;;;;;;5073386;28;20782;-77
2023/07/05 07:18:02;;;;;;;25.58;24.27;;;17.30;99.90;;;;;;5056956;28;20828;-76
2023/07/05 07:20:27;;;;;;;26.05;24.70;;;17.60;99.90;;;;;;5078957;28;20113;-77
2023/07/05 07:22:53;;;;;;;33.42;31.85;;;17.90;99.90;;;;;;5090230;28;20049;-77
2023/07/05 07:25:19;;;;;;;65.30;60.30;;;18.20;99.90;;;;;;5078172;28;20043;-77
2023/07/05 07:27:44;;;;;;;71.20;67.35;;;18.30;99.90;;;;;;5086443;28;20085;-77
2023/07/05 07:30:11;;;;;;;23.40;22.23;;;18.70;99.90;;;;;;5074813;28;20446;-77
2023/07/05 07:32:36;;;;;;;32.03;30.38;;;19.30;99.90;;;;;;5074493;28;20032;-76
2023/07/05 07:35:02;;;;;;;38.08;36.47;;;19.20;94.40;;;;;;5075000;28;20510;-77
2023/07/05 07:37:31;;;;;;;37.17;35.13;;;19.30;96.00;;;;;;5075923;28;20047;-78
2023/07/05 07:39:57;;;;;;;34.83;33.28;;;19.20;93.20;;;;;;5057518;28;20032;-79
2023/07/05 07:42:23;;;;;;;35.60;33.95;;;19.30;92.50;;;;;;5089968;28;20056;-77
2023/07/05 07:44:48;;;;;;;42.75;40.75;;;19.20;93.70;;;;;;5089155;28;20035;-76
2023/07/05 07:47:14;;;;;;;31.23;29.75;;;19.40;91.90;;;;;;5089952;28;20510;-77
2023/07/05 07:49:40;;;;;;;35.15;33.28;;;19.20;91.50;;;;;;5054581;28;20029;-77
2023/07/05 07:52:07;;;;;;;51.08;49.05;;;19.20;91.50;;;;;;5073141;28;20024;-77
2023/07/05 07:54:33;;;;;;;29.10;27.40;;;19.50;93.20;;;;;;5073553;28;20569;-76
2023/07/05 07:56:59;;;;;;;41.38;39.70;;;19.70;90.80;;;;;;5055909;28;20036;-77
2023/07/05 07:59:24;;;;;;;27.00;25.52;;;19.70;91.10;;;;;;5076060;28;20032;-77
2023/07/05 08:01:50;;;;;;;31.67;30.23;;;19.90;90.10;;;;;;5075361;28;20032;-77
2023/07/05 08:04:17;;;;;;;108.80;98.38;;;20.10;90.00;;;;;;5078482;28;20030;-77
2023/07/05 08:06:44;;;;;;;51.15;47.30;;;19.90;84.70;;;;;;5076693;28;20032;-77
2023/07/05 08:09:16;;;;;;;21.60;20.50;;;20.00;85.50;;;;;;5073602;28;20138;-77
2023/07/05 08:11:42;;;;;;;22.45;21.17;;;20.20;81.50;;;;;;5058633;28;20020;-77
2023/07/05 08:14:08;;;;;;;28.10;26.75;;;20.60;81.30;;;;;;5075373;28;20469;-77
2023/07/05 08:16:34;;;;;;;20.33;19.25;;;21.00;80.20;;;;;;5092153;28;20024;-77
2023/07/05 08:19:00;;;;;;;93.32;84.28;;;20.70;79.50;;;;;;5054891;28;20070;-76
2023/07/05 08:21:26;;;;;;;16.73;15.82;;;20.50;75.50;;;;;;5078060;28;20016;-78
2023/07/05 08:23:52;;;;;;;18.70;17.70;;;20.70;77.40;;;;;;5044950;28;20037;-78
2023/07/05 08:26:18;;;;;;;43.10;41.28;;;20.40;78.30;;;;;;5052202;28;20033;-78
2023/07/05 08:28:44;;;;;;;18.48;17.48;;;20.40;81.00;;;;;;5054234;28;20358;-78
2023/07/05 08:31:10;;;;;;;16.63;15.82;;;20.40;76.70;;;;;;5055891;28;20021;-77
2023/07/05 08:33:37;;;;;;;39.55;36.70;;;20.40;75.60;;;;;;5053994;28;20067;-78
2023/07/05 08:36:15;;;;;;;22.90;21.88;;;20.60;75.10;;;;;;5086379;28;20086;-77
2023/07/05 08:38:48;;;;;;;24.27;22.85;;;20.70;73.20;;;;;;5055841;28;20032;-78
2023/07/05 08:41:41;;;;;;;109.53;99.55;;;20.90;71.90;;;;;;5048874;28;20513;-76
2023/07/05 08:44:32;;;;;;;24.27;23.08;;;21.10;71.80;;;;;;5057129;28;20029;-76
2023/07/05 08:47:11;;;;;;;20.55;19.60;;;21.30;70.10;;;;;;5052963;28;20029;-77
2023/07/05 08:49:43;;;;;;;21.33;20.27;;;21.50;70.40;;;;;;5080050;28;20029;-77
2023/07/05 08:52:22;;;;;;;190.55;173.02;;;21.70;70.00;;;;;;5055688;28;20040;-77
2023/07/05 08:54:53;;;;;;;29.77;28.48;;;21.10;67.00;;;;;;5054803;28;20033;-77
2023/07/05 08:57:32;;;;;;;27.08;25.95;;;21.30;68.80;;;;;;5045976;28;20079;-78
2023/07/05 09:00:05;;;;;;;21.97;20.87;;;21.90;70.60;;;;;;5051853;28;20490;-76
2023/07/05 09:02:31;;;;;;;23.85;22.85;;;21.80;66.40;;;;;;5056167;28;20059;-77
2023/07/05 09:04:58;;;;;;;28.58;27.25;;;21.40;65.50;;;;;;5034789;28;20087;-77
2023/07/05 09:08:02;;;;;;;21.40;20.40;;;21.40;70.30;;;;;;5055908;28;20033;-77
2023/07/05 09:10:46;;;;;;;42.22;39.95;;;20.40;71.40;;;;;;5050564;28;20041;-77
2023/07/05 09:13:14;;;;;;;38.65;36.00;;;19.50;79.30;;;;;;5054397;28;20104;-79
2023/07/05 09:16:04;;;;;;;44.85;42.95;;;18.80;85.40;;;;;;5054503;28;20049;-78
2023/07/05 09:19:01;;;;;;;41.10;39.45;;;18.80;91.20;;;;;;5054415;28;20143;-82
2023/07/05 09:21:54;;;;;;;34.33;32.88;;;18.70;89.40;;;;;;5052264;28;20398;-79
2023/07/05 09:24:26;;;;;;;32.33;30.85;;;19.40;90.70;;;;;;5065897;28;20091;-77
2023/07/05 09:27:26;;;;;;;80.47;73.18;;;19.80;91.20;;;;;;5053861;28;20036;-79
2023/07/05 09:30:13;;;;;;;67.40;60.28;;;20.50;86.50;;;;;;5072185;28;20025;-77
2023/07/05 09:32:41;;;;;;;87.55;80.22;;;20.60;80.50;;;;;;5053346;28;20039;-77
2023/07/05 09:35:21;;;;;;;32.53;31.25;;;20.30;74.60;;;;;;5056678;28;20044;-78
2023/07/05 09:38:10;;;;;;;46.73;43.03;;;20.60;78.10;;;;;;5074262;28;20028;-78
2023/07/05 09:40:42;;;;;;;107.63;98.10;;;20.30;74.50;;;;;;5070393;28;20526;-78
2023/07/05 09:43:15;;;;;;;38.10;35.10;;;20.30;74.70;;;;;;5089126;28;20047;-79
2023/07/05 09:45:41;;;;;;;113.95;104.43;;;20.80;72.00;;;;;;5076359;28;20030;-78
2023/07/05 09:48:11;;;;;;;28.30;27.17;;;21.10;70.30;;;;;;5075068;28;20024;-77
2023/07/05 09:50:46;;;;;;;22.17;21.13;;;21.70;71.50;;;;;;5050126;28;20025;-75
2023/07/05 09:53:40;;;;;;;40.47;38.70;;;21.70;69.00;;;;;;5070632;28;20131;-76
2023/07/05 09:56:27;;;;;;;18.30;17.55;;;21.60;67.90;;;;;;5072633;28;20028;-75
2023/07/05 09:59:12;;;;;;;19.23;18.42;;;21.40;66.90;;;;;;5055427;28;20439;-75
2023/07/05 10:01:41;;;;;;;17.83;17.02;;;21.90;65.80;;;;;;5060492;28;20024;-75
2023/07/05 10:04:08;;;;;;;17.10;16.30;;;22.10;64.10;;;;;;5074500;28;20390;-75
2023/07/05 10:06:38;;;;;;;18.42;17.60;;;22.40;64.20;;;;;;5076095;28;20050;-75
2023/07/05 10:09:24;;;;;;;29.27;27.77;;;22.70;63.40;;;;;;5076651;28;20024;-75
2023/07/05 10:11:53;;;;;;;57.00;53.90;;;22.70;61.90;;;;;;5076839;28;20457;-76
2023/07/05 10:14:27;;;;;;;17.88;17.00;;;22.10;60.80;;;;;;5078740;28;20811;-75
2023/07/05 10:17:08;;;;;;;13.55;12.85;;;23.00;63.20;;;;;;5075153;28;20028;-74
2023/07/05 10:19:47;;;;;;;17.98;17.20;;;23.20;60.00;;;;;;5079140;28;20401;-75
2023/07/05 10:22:26;;;;;;;17.30;16.50;;;21.70;63.30;;;;;;5073416;28;20059;-75
2023/07/05 10:24:57;;;;;;;44.45;41.65;;;20.90;67.00;;;;;;5053007;28;20115;-76
2023/07/05 10:27:27;;;;;;;15.88;15.07;;;20.10;68.70;;;;;;5066277;28;20050;-75
2023/07/05 10:30:09;;;;;;;19.03;18.00;;;20.00;69.90;;;;;;5072780;28;20665;-75
2023/07/05 10:32:36;;;;;;;17.90;17.10;;;20.00;70.10;;;;;;5059783;28;20126;-75
2023/07/05 10:35:25;;;;;;;14.93;14.30;;;19.90;69.70;;;;;;5090610;28;20391;-75
2023/07/05 10:37:52;;;;;;;25.13;23.92;;;19.90;71.50;;;;;;5072383;28;20040;-75
2023/07/05 10:40:19;;;;;;;15.27;14.57;;;19.60;72.20;;;;;;5060644;28;20592;-75
2023/07/05 10:42:53;;;;;;;19.40;18.55;;;19.30;74.40;;;;;;5074630;28;20040;-76
2023/07/05 10:45:21;;;;;;;19.35;18.55;;;19.00;80.60;;;;;;5075040;28;20133;-76
2023/07/05 10:47:52;;;;;;;20.70;19.65;;;18.90;82.30;;;;;;5075921;28;20027;-77
2023/07/05 10:50:26;;;;;;;17.95;17.25;;;18.60;83.90;;;;;;5075078;28;20025;-77
2023/07/05 10:52:59;;;;;;;16.90;16.10;;;18.60;91.20;;;;;;5059843;28;20035;-76
2023/07/05 10:55:40;;;;;;;13.75;13.15;;;19.20;90.10;;;;;;5066286;28;20058;-76
2023/07/05 10:58:15;;;;;;;13.93;13.32;;;19.90;89.40;;;;;;5063935;28;20631;-75
2023/07/05 11:00:49;;;;;;;14.10;13.50;;;19.90;91.30;;;;;;5078574;28;20143;-75
2023/07/05 11:03:40;;;;;;;13.15;12.55;;;19.70;86.60;;;;;;5076404;28;20436;-76
2023/07/05 11:06:07;;;;;;;76.88;70.35;;;19.90;87.50;;;;;;5075898;28;20086;-75
2023/07/05 11:08:41;;;;;;;14.10;13.50;;;20.30;78.40;;;;;;5077330;28;20078;-75
2023/07/05 11:11:27;;;;;;;15.55;14.93;;;21.20;85.00;;;;;;5081826;28;20020;-75
2023/07/05 11:13:54;;;;;;;14.60;13.90;;;20.40;76.10;;;;;;5059960;28;20118;-75
2023/07/05 11:16:27;;;;;;;22.05;21.15;;;21.30;84.10;;;;;;5069689;28;20044;-76
2023/07/05 11:19:11;;;;;;;22.00;21.13;;;22.00;76.60;;;;;;5070554;28;20028;-76
2023/07/05 11:21:37;;;;;;;35.15;33.30;;;22.60;68.20;;;;;;5070458;28;20439;-76
2023/07/05 11:24:07;;;;;;;16.70;16.00;;;23.50;64.40;;;;;;5086954;28;20056;-75
2023/07/05 11:26:35;;;;;;;15.48;14.65;;;24.50;58.40;;;;;;5075896;28;20037;-75
2023/07/05 11:29:21;;;;;;;63.13;60.90;;;25.60;51.50;;;;;;5072803;28;20052;-75
2023/07/05 11:31:47;;;;;;;83.25;80.28;;;25.60;51.10;;;;;;5060918;28;20751;-75
2023/07/05 11:34:22;;;;;;;83.72;80.82;;;25.20;49.70;;;;;;5076502;28;20086;-75
2023/07/05 11:36:47;;;;;;;94.57;91.25;;;24.30;51.50;;;;;;5074081;28;20093;-75
2023/07/05 11:39:36;;;;;;;105.93;102.03;;;23.20;54.90;;;;;;5073770;28;20062;-75
2023/07/05 11:42:17;;;;;;;70.50;67.95;;;22.30;56.80;;;;;;5072247;28;20047;-75
2023/07/05 11:44:42;;;;;;;16.95;16.02;;;21.60;57.80;;;;;;5076248;28;20491;-75
2023/07/05 11:47:10;;;;;;;14.60;13.90;;;21.10;66.80;;;;;;5076559;28;20082;-76
2023/07/05 11:49:41;;;;;;;12.43;11.73;;;20.10;66.40;;;;;;5075098;28;20453;-75
2023/07/05 11:52:10;;;;;;;15.40;14.60;;;19.80;71.30;;;;;;5089742;28;20052;-75
2023/07/05 11:54:51;;;;;;;13.73;13.05;;;20.80;73.40;;;;;;5068804;28;20028;-75
2023/07/05 11:57:17;;;;;;;14.77;14.07;;;20.90;69.50;;;;;;5075227;28;20052;-75
2023/07/05 11:59:58;;;;;;;16.25;15.55;;;22.50;66.40;;;;;;5074025;28;20025;-75
2023/07/05 12:02:36;;;;;;;13.35;12.55;;;23.90;60.90;;;;;;5078950;28;20139;-76
2023/07/05 12:05:08;;;;;;;82.15;79.25;;;24.80;52.50;;;;;;5075313;28;20034;-76
2023/07/05 12:07:35;;;;;;;134.38;129.52;;;25.60;48.50;;;;;;5088476;28;20036;-76
2023/07/05 12:10:04;;;;;;;216.13;208.40;;;25.10;47.20;;;;;;5077378;28;20433;-75
2023/07/05 12:12:35;;;;;;;323.20;310.08;;;25.00;44.00;;;;;;5074910;28;20025;-75
2023/07/05 12:15:01;;;;;;;379.90;364.70;;;24.30;48.40;;;;;;5071903;28;20029;-76
2023/07/05 12:17:29;;;;;;;376.40;352.83;;;24.50;45.50;;;;;;5072552;28;20043;-75
2023/07/05 12:19:57;;;;;;;391.02;375.67;;;25.70;42.40;;;;;;5071073;28;20029;-75
2023/07/05 12:22:25;;;;;;;380.10;365.15;;;26.30;43.50;;;;;;5075267;28;20028;-75
2023/07/05 12:24:53;;;;;;;535.80;508.65;;;25.10;45.40;;;;;;5091747;28;20043;-75
2023/07/05 12:27:28;;;;;;;368.45;354.15;;;24.50;42.60;;;;;;5075034;28;20123;-76
2023/07/05 12:29:57;;;;;;;394.10;378.13;;;24.20;45.10;;;;;;5073952;28;20074;-75
2023/07/05 12:32:26;;;;;;;171.15;165.07;;;23.80;45.20;;;;;;5071983;28;20740;-75
2023/07/05 12:35:09;;;;;;;327.00;314.58;;;24.00;48.60;;;;;;5075655;28;20024;-75
2023/07/05 12:37:35;;;;;;;306.35;295.17;;;24.80;45.20;;;;;;5073551;28;20541;-75
2023/07/05 12:40:17;;;;;;;568.72;541.70;;;26.00;42.50;;;;;;5067148;28;20041;-76